sensor_id;sensor_type;location;lat;lon;timestamp;P1;durP1;ratioP1;P2;durP2;ratioP2
34317;SDS011;20582;52.196;20.952;2023-05-10T00:01:10;12.90;;;6.55;;
34317;SDS011;20582;52.196;20.952;2023-05-10T00:03:36;12.75;;;6.05;;
34317;SDS011;20582;52.196;20.952;2023-05-10T00:06:02;12.55;;;5.90;;
34317;SDS011;20582;52.196;20.952;2023-05-10T00:08:28;12.48;;;6.10;;
34317;SDS011;20582;52.196;20.952;2023-05-10T00:10:54;13.95;;;6.15;;
34317;SDS011;20582;52.196;20.952;2023-05-10T00:13:20;12.15;;;5.68;;
34317;SDS011;20582;52.196;20.952;2023-05-10T00:15:46;13.55;;;6.10;;
34317;SDS011;20582;52.196;20.952;2023-05-10T00:18:12;11.98;;;6.50;;
34317;SDS011;20582;52.196;20.952;2023-05-10T00:20:38;12.90;;;6.22;;
34317;SDS011;20582;52.196;20.952;2023-05-10T00:23:04;14.02;;;6.35;;
34317;SDS011;20582;52.196;20.952;2023-05-10T00:25:30;12.88;;;6.22;;
34317;SDS011;20582;52.196;20.952;2023-05-10T00:27:56;14.60;;;6.18;;
34317;SDS011;20582;52.196;20.952;2023-05-10T00:30:22;12.20;;;6.38;;
34317;SDS011;20582;52.196;20.952;2023-05-10T00:32:48;11.95;;;6.20;;
34317;SDS011;20582;52.196;20.952;2023-05-10T00:35:14;15.10;;;5.90;;
34317;SDS011;20582;52.196;20.952;2023-05-10T00:37:41;12.65;;;6.22;;
34317;SDS011;20582;52.196;20.952;2023-05-10T00:40:07;13.48;;;6.10;;
34317;SDS011;20582;52.196;20.952;2023-05-10T00:42:33;12.02;;;6.45;;
34317;SDS011;20582;52.196;20.952;2023-05-10T00:44:59;14.98;;;6.10;;
34317;SDS011;20582;52.196;20.952;2023-05-10T00:47:25;12.75;;;6.22;;
34317;SDS011;20582;52.196;20.952;2023-05-10T00:49:51;11.63;;;6.22;;
34317;SDS011;20582;52.196;20.952;2023-05-10T00:52:17;12.50;;;6.47;;
34317;SDS011;20582;52.196;20.952;2023-05-10T00:54:43;11.85;;;6.32;;
34317;SDS011;20582;52.196;20.952;2023-05-10T00:57:10;10.95;;;5.97;;
34317;SDS011;20582;52.196;20.952;2023-05-10T00:59:36;10.55;;;5.47;;
34317;SDS011;20582;52.196;20.952;2023-05-10T01:02:02;16.55;;;6.22;;
34317;SDS011;20582;52.196;20.952;2023-05-10T01:04:28;12.20;;;6.05;;
34317;SDS011;20582;52.196;20.952;2023-05-10T01:06:55;12.60;;;5.80;;
34317;SDS011;20582;52.196;20.952;2023-05-10T01:09:21;12.43;;;6.00;;
34317;SDS011;20582;52.196;20.952;2023-05-10T01:11:48;11.48;;;5.47;;
34317;SDS011;20582;52.196;20.952;2023-05-10T01:14:15;12.27;;;6.15;;
34317;SDS011;20582;52.196;20.952;2023-05-10T01:16:43;11.88;;;5.38;;
34317;SDS011;20582;52.196;20.952;2023-05-10T01:19:43;13.07;;;5.53;;
34317;SDS011;20582;52.196;20.952;2023-05-10T01:24:40;16.40;;;5.70;;
34317;SDS011;20582;52.196;20.952;2023-05-10T01:27:17;12.50;;;5.50;;
34317;SDS011;20582;52.196;20.952;2023-05-10T01:32:16;13.15;;;5.72;;
34317;SDS011;20582;52.196;20.952;2023-05-10T01:34:53;14.00;;;5.82;;
34317;SDS011;20582;52.196;20.952;2023-05-10T01:37:21;13.15;;;5.22;;
34317;SDS011;20582;52.196;20.952;2023-05-10T01:39:55;10.73;;;5.63;;
34317;SDS011;20582;52.196;20.952;2023-05-10T01:42:25;11.57;;;5.60;;
34317;SDS011;20582;52.196;20.952;2023-05-10T01:45:39;12.77;;;5.68;;
34317;SDS011;20582;52.196;20.952;2023-05-10T01:47:40;12.77;;;6.13;;
34317;SDS011;20582;52.196;20.952;2023-05-10T01:50:15;13.82;;;6.15;;
34317;SDS011;20582;52.196;20.952;2023-05-10T01:52:42;12.68;;;6.20;;
34317;SDS011;20582;52.196;20.952;2023-05-10T01:55:11;12.77;;;5.63;;
34317;SDS011;20582;52.196;20.952;2023-05-10T01:57:39;13.20;;;6.22;;
34317;SDS011;20582;52.196;20.952;2023-05-10T02:00:06;12.20;;;6.10;;
34317;SDS011;20582;52.196;20.952;2023-05-10T02:02:34;12.85;;;5.75;;
34317;SDS011;20582;52.196;20.952;2023-05-10T02:05:01;14.43;;;5.72;;
34317;SDS011;20582;52.196;20.952;2023-05-10T02:07:28;12.77;;;6.00;;
34317;SDS011;20582;52.196;20.952;2023-05-10T02:09:54;13.40;;;5.93;;
34317;SDS011;20582;52.196;20.952;2023-05-10T02:12:21;15.82;;;5.88;;
34317;SDS011;20582;52.196;20.952;2023-05-10T02:14:48;11.80;;;5.22;;
34317;SDS011;20582;52.196;20.952;2023-05-10T02:17:14;13.77;;;6.93;;
34317;SDS011;20582;52.196;20.952;2023-05-10T02:19:41;9.82;;;5.40;;
34317;SDS011;20582;52.196;20.952;2023-05-10T02:22:08;12.80;;;5.53;;
34317;SDS011;20582;52.196;20.952;2023-05-10T02:24:35;13.85;;;5.90;;
34317;SDS011;20582;52.196;20.952;2023-05-10T02:27:02;11.27;;;5.60;;
34317;SDS011;20582;52.196;20.952;2023-05-10T02:29:29;13.18;;;5.93;;
34317;SDS011;20582;52.196;20.952;2023-05-10T02:31:56;13.07;;;5.88;;
34317;SDS011;20582;52.196;20.952;2023-05-10T02:34:23;14.48;;;6.05;;
34317;SDS011;20582;52.196;20.952;2023-05-10T02:36:49;13.55;;;5.90;;
34317;SDS011;20582;52.196;20.952;2023-05-10T02:39:16;13.57;;;5.65;;
34317;SDS011;20582;52.196;20.952;2023-05-10T02:41:44;11.93;;;5.57;;
34317;SDS011;20582;52.196;20.952;2023-05-10T02:44:11;13.40;;;6.07;;
34317;SDS011;20582;52.196;20.952;2023-05-10T02:46:37;12.02;;;5.57;;
34317;SDS011;20582;52.196;20.952;2023-05-10T02:49:04;9.57;;;5.55;;
34317;SDS011;20582;52.196;20.952;2023-05-10T02:51:31;12.27;;;5.82;;
34317;SDS011;20582;52.196;20.952;2023-05-10T02:54:00;12.57;;;6.18;;
34317;SDS011;20582;52.196;20.952;2023-05-10T02:56:31;11.40;;;5.30;;
34317;SDS011;20582;52.196;20.952;2023-05-10T02:58:58;16.35;;;6.55;;
34317;SDS011;20582;52.196;20.952;2023-05-10T03:01:24;12.15;;;5.75;;
34317;SDS011;20582;52.196;20.952;2023-05-10T03:03:50;13.30;;;6.18;;
34317;SDS011;20582;52.196;20.952;2023-05-10T03:06:16;11.73;;;5.15;;
34317;SDS011;20582;52.196;20.952;2023-05-10T03:08:43;13.10;;;6.07;;
34317;SDS011;20582;52.196;20.952;2023-05-10T03:14:07;12.70;;;6.55;;
34317;SDS011;20582;52.196;20.952;2023-05-10T03:16:36;13.68;;;6.35;;
34317;SDS011;20582;52.196;20.952;2023-05-10T03:19:39;14.18;;;6.68;;
34317;SDS011;20582;52.196;20.952;2023-05-10T03:21:57;12.18;;;6.40;;
34317;SDS011;20582;52.196;20.952;2023-05-10T03:24:25;12.95;;;6.63;;
34317;SDS011;20582;52.196;20.952;2023-05-10T03:26:53;16.45;;;6.35;;
34317;SDS011;20582;52.196;20.952;2023-05-10T03:29:21;13.20;;;6.05;;
34317;SDS011;20582;52.196;20.952;2023-05-10T03:31:48;16.50;;;6.40;;
34317;SDS011;20582;52.196;20.952;2023-05-10T03:34:14;14.70;;;6.18;;
34317;SDS011;20582;52.196;20.952;2023-05-10T03:36:40;14.88;;;6.68;;
34317;SDS011;20582;52.196;20.952;2023-05-10T03:39:06;13.00;;;6.55;;
34317;SDS011;20582;52.196;20.952;2023-05-10T03:41:32;14.70;;;6.50;;
34317;SDS011;20582;52.196;20.952;2023-05-10T03:43:58;11.18;;;5.72;;
34317;SDS011;20582;52.196;20.952;2023-05-10T03:46:24;9.80;;;5.85;;
34317;SDS011;20582;52.196;20.952;2023-05-10T03:48:50;12.10;;;6.05;;
34317;SDS011;20582;52.196;20.952;2023-05-10T03:51:16;15.60;;;6.65;;
34317;SDS011;20582;52.196;20.952;2023-05-10T03:53:42;12.20;;;6.35;;
34317;SDS011;20582;52.196;20.952;2023-05-10T03:56:08;14.25;;;5.90;;
34317;SDS011;20582;52.196;20.952;2023-05-10T03:58:33;13.20;;;6.75;;
34317;SDS011;20582;52.196;20.952;2023-05-10T04:00:59;14.18;;;6.47;;
34317;SDS011;20582;52.196;20.952;2023-05-10T04:03:25;12.45;;;6.30;;
34317;SDS011;20582;52.196;20.952;2023-05-10T04:05:58;15.07;;;6.78;;
34317;SDS011;20582;52.196;20.952;2023-05-10T04:08:25;13.43;;;6.13;;
34317;SDS011;20582;52.196;20.952;2023-05-10T04:10:51;14.57;;;6.25;;
34317;SDS011;20582;52.196;20.952;2023-05-10T04:13:17;15.00;;;6.72;;
34317;SDS011;20582;52.196;20.952;2023-05-10T04:15:43;11.60;;;5.50;;
34317;SDS011;20582;52.196;20.952;2023-05-10T04:18:09;15.13;;;6.35;;
34317;SDS011;20582;52.196;20.952;2023-05-10T04:20:36;12.43;;;6.22;;
34317;SDS011;20582;52.196;20.952;2023-05-10T04:23:02;14.80;;;6.28;;
34317;SDS011;20582;52.196;20.952;2023-05-10T04:25:28;16.42;;;6.30;;
34317;SDS011;20582;52.196;20.952;2023-05-10T04:27:54;12.90;;;6.05;;
34317;SDS011;20582;52.196;20.952;2023-05-10T04:30:20;15.35;;;5.72;;
34317;SDS011;20582;52.196;20.952;2023-05-10T04:32:46;14.35;;;6.03;;
34317;SDS011;20582;52.196;20.952;2023-05-10T04:35:12;13.70;;;6.07;;
34317;SDS011;20582;52.196;20.952;2023-05-10T04:37:39;15.13;;;6.00;;
34317;SDS011;20582;52.196;20.952;2023-05-10T04:40:05;10.02;;;5.65;;
34317;SDS011;20582;52.196;20.952;2023-05-10T04:42:31;15.13;;;6.68;;
34317;SDS011;20582;52.196;20.952;2023-05-10T04:44:58;14.50;;;5.53;;
34317;SDS011;20582;52.196;20.952;2023-05-10T04:47:24;13.65;;;5.78;;
34317;SDS011;20582;52.196;20.952;2023-05-10T04:49:49;14.85;;;5.57;;
34317;SDS011;20582;52.196;20.952;2023-05-10T04:52:15;10.77;;;5.47;;
34317;SDS011;20582;52.196;20.952;2023-05-10T04:54:42;15.55;;;6.10;;
34317;SDS011;20582;52.196;20.952;2023-05-10T04:57:08;11.88;;;5.95;;
34317;SDS011;20582;52.196;20.952;2023-05-10T04:59:35;12.25;;;5.65;;
34317;SDS011;20582;52.196;20.952;2023-05-10T05:02:02;13.32;;;6.10;;
34317;SDS011;20582;52.196;20.952;2023-05-10T05:04:29;14.68;;;5.90;;
34317;SDS011;20582;52.196;20.952;2023-05-10T05:06:55;14.23;;;6.28;;
34317;SDS011;20582;52.196;20.952;2023-05-10T05:09:22;11.95;;;5.50;;
34317;SDS011;20582;52.196;20.952;2023-05-10T05:11:47;13.85;;;5.90;;
34317;SDS011;20582;52.196;20.952;2023-05-10T05:14:13;16.23;;;5.82;;
34317;SDS011;20582;52.196;20.952;2023-05-10T05:16:39;13.38;;;5.28;;
34317;SDS011;20582;52.196;20.952;2023-05-10T05:19:05;13.18;;;6.10;;
34317;SDS011;20582;52.196;20.952;2023-05-10T05:21:31;14.40;;;5.93;;
34317;SDS011;20582;52.196;20.952;2023-05-10T05:23:57;15.90;;;5.65;;
34317;SDS011;20582;52.196;20.952;2023-05-10T05:26:23;18.73;;;6.25;;
34317;SDS011;20582;52.196;20.952;2023-05-10T05:28:49;14.57;;;5.45;;
34317;SDS011;20582;52.196;20.952;2023-05-10T05:31:18;20.23;;;5.30;;
34317;SDS011;20582;52.196;20.952;2023-05-10T05:33:44;14.95;;;5.07;;
34317;SDS011;20582;52.196;20.952;2023-05-10T05:36:10;11.57;;;5.07;;
34317;SDS011;20582;52.196;20.952;2023-05-10T05:38:36;11.90;;;5.15;;
34317;SDS011;20582;52.196;20.952;2023-05-10T05:41:02;11.32;;;5.07;;
34317;SDS011;20582;52.196;20.952;2023-05-10T05:43:28;11.30;;;4.88;;
34317;SDS011;20582;52.196;20.952;2023-05-10T05:45:54;12.90;;;4.97;;
34317;SDS011;20582;52.196;20.952;2023-05-10T05:48:22;11.25;;;5.45;;
34317;SDS011;20582;52.196;20.952;2023-05-10T05:50:48;11.23;;;4.65;;
34317;SDS011;20582;52.196;20.952;2023-05-10T05:53:15;10.48;;;4.82;;
34317;SDS011;20582;52.196;20.952;2023-05-10T05:55:50;11.15;;;5.20;;
34317;SDS011;20582;52.196;20.952;2023-05-10T05:58:16;12.65;;;4.90;;
34317;SDS011;20582;52.196;20.952;2023-05-10T06:00:42;14.80;;;4.82;;
34317;SDS011;20582;52.196;20.952;2023-05-10T06:03:08;11.32;;;4.93;;
34317;SDS011;20582;52.196;20.952;2023-05-10T06:05:34;17.80;;;5.68;;
34317;SDS011;20582;52.196;20.952;2023-05-10T06:08:00;15.93;;;5.15;;
34317;SDS011;20582;52.196;20.952;2023-05-10T06:10:26;12.80;;;5.20;;
34317;SDS011;20582;52.196;20.952;2023-05-10T06:12:52;11.00;;;4.68;;
34317;SDS011;20582;52.196;20.952;2023-05-10T06:15:18;15.50;;;4.82;;
34317;SDS011;20582;52.196;20.952;2023-05-10T06:17:44;11.18;;;4.90;;
34317;SDS011;20582;52.196;20.952;2023-05-10T06:20:10;11.23;;;4.82;;
34317;SDS011;20582;52.196;20.952;2023-05-10T06:22:36;11.27;;;4.65;;
34317;SDS011;20582;52.196;20.952;2023-05-10T06:25:02;16.80;;;4.88;;
34317;SDS011;20582;52.196;20.952;2023-05-10T06:27:28;12.35;;;4.45;;
34317;SDS011;20582;52.196;20.952;2023-05-10T06:29:54;11.48;;;4.38;;
34317;SDS011;20582;52.196;20.952;2023-05-10T06:32:20;16.15;;;4.68;;
34317;SDS011;20582;52.196;20.952;2023-05-10T06:34:46;11.00;;;4.85;;
34317;SDS011;20582;52.196;20.952;2023-05-10T06:37:12;12.75;;;4.88;;
34317;SDS011;20582;52.196;20.952;2023-05-10T06:39:38;11.05;;;5.00;;
34317;SDS011;20582;52.196;20.952;2023-05-10T06:42:04;11.93;;;4.45;;
34317;SDS011;20582;52.196;20.952;2023-05-10T06:44:30;10.75;;;4.40;;
34317;SDS011;20582;52.196;20.952;2023-05-10T06:46:56;8.45;;;4.10;;
34317;SDS011;20582;52.196;20.952;2023-05-10T06:49:22;10.50;;;4.05;;
34317;SDS011;20582;52.196;20.952;2023-05-10T06:51:48;11.02;;;4.18;;
34317;SDS011;20582;52.196;20.952;2023-05-10T06:54:14;11.07;;;4.20;;
34317;SDS011;20582;52.196;20.952;2023-05-10T06:56:40;11.32;;;4.00;;
34317;SDS011;20582;52.196;20.952;2023-05-10T06:59:06;14.80;;;4.35;;
34317;SDS011;20582;52.196;20.952;2023-05-10T07:01:32;8.45;;;3.95;;
34317;SDS011;20582;52.196;20.952;2023-05-10T07:03:58;10.77;;;4.53;;
34317;SDS011;20582;52.196;20.952;2023-05-10T07:06:24;13.50;;;4.18;;
34317;SDS011;20582;52.196;20.952;2023-05-10T07:08:50;9.48;;;3.72;;
34317;SDS011;20582;52.196;20.952;2023-05-10T07:11:16;10.10;;;3.50;;
34317;SDS011;20582;52.196;20.952;2023-05-10T07:13:42;10.55;;;3.92;;
34317;SDS011;20582;52.196;20.952;2023-05-10T07:16:09;9.55;;;3.58;;
34317;SDS011;20582;52.196;20.952;2023-05-10T07:18:35;9.45;;;3.88;;
34317;SDS011;20582;52.196;20.952;2023-05-10T07:21:01;11.93;;;4.05;;
34317;SDS011;20582;52.196;20.952;2023-05-10T07:23:27;9.90;;;4.05;;
34317;SDS011;20582;52.196;20.952;2023-05-10T07:25:54;10.65;;;3.97;;
34317;SDS011;20582;52.196;20.952;2023-05-10T07:28:22;8.38;;;3.70;;
34317;SDS011;20582;52.196;20.952;2023-05-10T07:30:49;8.38;;;3.30;;
34317;SDS011;20582;52.196;20.952;2023-05-10T07:33:15;9.38;;;3.15;;
34317;SDS011;20582;52.196;20.952;2023-05-10T07:35:42;10.32;;;3.47;;
34317;SDS011;20582;52.196;20.952;2023-05-10T07:38:08;7.80;;;3.15;;
34317;SDS011;20582;52.196;20.952;2023-05-10T07:40:36;6.65;;;2.83;;
34317;SDS011;20582;52.196;20.952;2023-05-10T07:43:03;8.68;;;2.80;;
34317;SDS011;20582;52.196;20.952;2023-05-10T07:45:29;8.73;;;3.30;;
34317;SDS011;20582;52.196;20.952;2023-05-10T07:47:54;8.43;;;2.83;;
34317;SDS011;20582;52.196;20.952;2023-05-10T07:50:20;10.30;;;3.10;;
34317;SDS011;20582;52.196;20.952;2023-05-10T07:52:47;9.15;;;3.17;;
34317;SDS011;20582;52.196;20.952;2023-05-10T07:55:13;8.73;;;3.10;;
34317;SDS011;20582;52.196;20.952;2023-05-10T07:57:39;8.73;;;3.17;;
34317;SDS011;20582;52.196;20.952;2023-05-10T08:00:05;7.25;;;3.42;;
34317;SDS011;20582;52.196;20.952;2023-05-10T08:02:32;7.53;;;2.83;;
34317;SDS011;20582;52.196;20.952;2023-05-10T08:04:58;10.98;;;3.13;;
34317;SDS011;20582;52.196;20.952;2023-05-10T08:07:24;4.97;;;2.83;;
34317;SDS011;20582;52.196;20.952;2023-05-10T08:09:50;10.02;;;3.03;;
34317;SDS011;20582;52.196;20.952;2023-05-10T08:12:16;10.25;;;2.78;;
34317;SDS011;20582;52.196;20.952;2023-05-10T08:14:42;8.38;;;3.30;;
34317;SDS011;20582;52.196;20.952;2023-05-10T08:17:08;10.55;;;3.92;;
34317;SDS011;20582;52.196;20.952;2023-05-10T08:19:34;11.13;;;3.10;;
34317;SDS011;20582;52.196;20.952;2023-05-10T08:22:00;7.05;;;3.22;;
34317;SDS011;20582;52.196;20.952;2023-05-10T08:24:26;8.75;;;3.05;;
34317;SDS011;20582;52.196;20.952;2023-05-10T08:26:52;12.27;;;5.03;;
34317;SDS011;20582;52.196;20.952;2023-05-10T08:29:18;14.23;;;4.10;;
34317;SDS011;20582;52.196;20.952;2023-05-10T08:31:44;8.30;;;3.40;;
34317;SDS011;20582;52.196;20.952;2023-05-10T08:34:10;9.05;;;3.30;;
34317;SDS011;20582;52.196;20.952;2023-05-10T08:36:36;11.75;;;3.55;;
34317;SDS011;20582;52.196;20.952;2023-05-10T08:39:02;11.98;;;3.55;;
34317;SDS011;20582;52.196;20.952;2023-05-10T08:41:28;8.38;;;3.15;;
34317;SDS011;20582;52.196;20.952;2023-05-10T08:43:55;9.20;;;3.00;;
34317;SDS011;20582;52.196;20.952;2023-05-10T08:46:21;9.68;;;3.50;;
34317;SDS011;20582;52.196;20.952;2023-05-10T08:48:48;7.18;;;3.47;;
34317;SDS011;20582;52.196;20.952;2023-05-10T08:51:17;6.82;;;2.92;;
34317;SDS011;20582;52.196;20.952;2023-05-10T08:53:44;8.90;;;2.92;;
34317;SDS011;20582;52.196;20.952;2023-05-10T08:56:10;8.80;;;2.92;;
34317;SDS011;20582;52.196;20.952;2023-05-10T08:58:36;6.15;;;3.60;;
34317;SDS011;20582;52.196;20.952;2023-05-10T09:01:03;9.77;;;2.90;;
34317;SDS011;20582;52.196;20.952;2023-05-10T09:03:29;10.85;;;2.92;;
34317;SDS011;20582;52.196;20.952;2023-05-10T09:05:56;6.78;;;2.95;;
34317;SDS011;20582;52.196;20.952;2023-05-10T09:08:25;5.28;;;2.90;;
34317;SDS011;20582;52.196;20.952;2023-05-10T09:10:51;4.82;;;2.55;;
34317;SDS011;20582;52.196;20.952;2023-05-10T09:13:17;6.07;;;2.85;;
34317;SDS011;20582;52.196;20.952;2023-05-10T09:15:44;8.07;;;3.58;;
34317;SDS011;20582;52.196;20.952;2023-05-10T09:18:10;6.03;;;3.25;;
34317;SDS011;20582;52.196;20.952;2023-05-10T09:20:36;8.23;;;2.95;;
34317;SDS011;20582;52.196;20.952;2023-05-10T09:23:02;6.68;;;3.15;;
34317;SDS011;20582;52.196;20.952;2023-05-10T09:25:29;8.27;;;3.35;;
34317;SDS011;20582;52.196;20.952;2023-05-10T09:27:55;7.00;;;3.13;;
34317;SDS011;20582;52.196;20.952;2023-05-10T09:30:25;7.82;;;3.03;;
34317;SDS011;20582;52.196;20.952;2023-05-10T09:35:18;5.90;;;3.05;;
34317;SDS011;20582;52.196;20.952;2023-05-10T09:37:46;9.18;;;3.13;;
34317;SDS011;20582;52.196;20.952;2023-05-10T09:40:21;8.25;;;3.28;;
34317;SDS011;20582;52.196;20.952;2023-05-10T09:42:52;6.63;;;3.35;;
34317;SDS011;20582;52.196;20.952;2023-05-10T09:45:19;9.25;;;3.50;;
34317;SDS011;20582;52.196;20.952;2023-05-10T09:47:45;8.05;;;3.28;;
34317;SDS011;20582;52.196;20.952;2023-05-10T09:50:11;5.90;;;3.17;;
34317;SDS011;20582;52.196;20.952;2023-05-10T09:52:50;10.02;;;3.38;;
34317;SDS011;20582;52.196;20.952;2023-05-10T09:55:17;5.25;;;2.92;;
34317;SDS011;20582;52.196;20.952;2023-05-10T09:57:43;8.75;;;3.22;;
34317;SDS011;20582;52.196;20.952;2023-05-10T10:00:09;7.25;;;3.10;;
34317;SDS011;20582;52.196;20.952;2023-05-10T10:02:35;8.07;;;3.17;;
34317;SDS011;20582;52.196;20.952;2023-05-10T10:05:02;5.68;;;3.03;;
34317;SDS011;20582;52.196;20.952;2023-05-10T10:07:28;9.45;;;3.60;;
34317;SDS011;20582;52.196;20.952;2023-05-10T10:09:54;6.05;;;3.25;;
34317;SDS011;20582;52.196;20.952;2023-05-10T10:12:20;8.68;;;3.40;;
34317;SDS011;20582;52.196;20.952;2023-05-10T10:14:47;10.60;;;3.50;;
34317;SDS011;20582;52.196;20.952;2023-05-10T10:17:15;8.27;;;2.97;;
34317;SDS011;20582;52.196;20.952;2023-05-10T10:19:41;10.15;;;3.28;;
34317;SDS011;20582;52.196;20.952;2023-05-10T10:22:07;11.05;;;3.60;;
34317;SDS011;20582;52.196;20.952;2023-05-10T10:24:35;14.02;;;3.63;;
34317;SDS011;20582;52.196;20.952;2023-05-10T10:29:51;6.28;;;3.15;;
34317;SDS011;20582;52.196;20.952;2023-05-10T10:34:44;8.88;;;2.95;;
34317;SDS011;20582;52.196;20.952;2023-05-10T10:37:10;9.80;;;3.22;;
34317;SDS011;20582;52.196;20.952;2023-05-10T10:39:36;7.47;;;3.40;;
34317;SDS011;20582;52.196;20.952;2023-05-10T10:42:02;9.70;;;3.30;;
34317;SDS011;20582;52.196;20.952;2023-05-10T10:50:02;6.72;;;3.20;;
34317;SDS011;20582;52.196;20.952;2023-05-10T10:52:35;6.43;;;3.20;;
34317;SDS011;20582;52.196;20.952;2023-05-10T10:57:32;8.18;;;3.72;;
34317;SDS011;20582;52.196;20.952;2023-05-10T11:02:44;8.07;;;3.20;;
34317;SDS011;20582;52.196;20.952;2023-05-10T11:07:55;8.32;;;3.10;;
34317;SDS011;20582;52.196;20.952;2023-05-10T11:10:21;8.35;;;3.00;;
34317;SDS011;20582;52.196;20.952;2023-05-10T11:13:04;14.45;;;3.22;;
34317;SDS011;20582;52.196;20.952;2023-05-10T11:17:56;8.85;;;3.38;;
34317;SDS011;20582;52.196;20.952;2023-05-10T11:20:22;10.73;;;3.88;;
34317;SDS011;20582;52.196;20.952;2023-05-10T11:22:54;8.88;;;3.80;;
34317;SDS011;20582;52.196;20.952;2023-05-10T11:25:25;14.15;;;3.80;;
34317;SDS011;20582;52.196;20.952;2023-05-10T11:27:53;10.43;;;3.65;;
34317;SDS011;20582;52.196;20.952;2023-05-10T11:30:19;9.77;;;3.40;;
34317;SDS011;20582;52.196;20.952;2023-05-10T11:32:45;12.27;;;2.88;;
34317;SDS011;20582;52.196;20.952;2023-05-10T11:35:11;7.78;;;3.00;;
34317;SDS011;20582;52.196;20.952;2023-05-10T11:37:38;7.05;;;2.97;;
34317;SDS011;20582;52.196;20.952;2023-05-10T11:40:08;8.43;;;3.10;;
34317;SDS011;20582;52.196;20.952;2023-05-10T11:42:36;6.43;;;3.10;;
34317;SDS011;20582;52.196;20.952;2023-05-10T11:45:03;10.10;;;3.20;;
34317;SDS011;20582;52.196;20.952;2023-05-10T11:47:29;8.27;;;3.00;;
34317;SDS011;20582;52.196;20.952;2023-05-10T11:49:55;6.05;;;3.10;;
34317;SDS011;20582;52.196;20.952;2023-05-10T11:52:21;8.13;;;3.15;;
34317;SDS011;20582;52.196;20.952;2023-05-10T11:54:54;5.35;;;2.85;;
34317;SDS011;20582;52.196;20.952;2023-05-10T11:57:20;7.65;;;3.10;;
34317;SDS011;20582;52.196;20.952;2023-05-10T11:59:47;7.85;;;3.03;;
34317;SDS011;20582;52.196;20.952;2023-05-10T12:02:13;9.23;;;3.25;;
34317;SDS011;20582;52.196;20.952;2023-05-10T12:04:39;7.43;;;3.13;;
34317;SDS011;20582;52.196;20.952;2023-05-10T12:07:06;4.80;;;3.00;;
34317;SDS011;20582;52.196;20.952;2023-05-10T12:09:32;12.75;;;3.42;;
34317;SDS011;20582;52.196;20.952;2023-05-10T12:11:58;7.65;;;3.33;;
34317;SDS011;20582;52.196;20.952;2023-05-10T12:14:24;5.97;;;2.83;;
34317;SDS011;20582;52.196;20.952;2023-05-10T12:16:50;11.18;;;3.05;;
34317;SDS011;20582;52.196;20.952;2023-05-10T12:19:19;7.90;;;3.00;;
34317;SDS011;20582;52.196;20.952;2023-05-10T12:21:46;10.35;;;3.15;;
34317;SDS011;20582;52.196;20.952;2023-05-10T12:24:12;9.10;;;3.28;;
34317;SDS011;20582;52.196;20.952;2023-05-10T12:26:41;9.90;;;3.42;;
34317;SDS011;20582;52.196;20.952;2023-05-10T12:29:17;12.20;;;3.25;;
34317;SDS011;20582;52.196;20.952;2023-05-10T12:31:53;11.52;;;3.10;;
34317;SDS011;20582;52.196;20.952;2023-05-10T12:34:38;8.80;;;3.08;;
34317;SDS011;20582;52.196;20.952;2023-05-10T12:37:04;7.32;;;3.08;;
34317;SDS011;20582;52.196;20.952;2023-05-10T12:42:05;8.85;;;2.90;;
34317;SDS011;20582;52.196;20.952;2023-05-10T12:44:32;9.15;;;2.92;;
34317;SDS011;20582;52.196;20.952;2023-05-10T12:46:58;7.10;;;2.72;;
34317;SDS011;20582;52.196;20.952;2023-05-10T12:49:23;8.30;;;2.97;;
34317;SDS011;20582;52.196;20.952;2023-05-10T12:51:50;9.63;;;2.90;;
34317;SDS011;20582;52.196;20.952;2023-05-10T12:54:16;11.32;;;3.15;;
34317;SDS011;20582;52.196;20.952;2023-05-10T12:56:42;7.90;;;3.17;;
34317;SDS011;20582;52.196;20.952;2023-05-10T12:59:08;8.45;;;3.30;;
34317;SDS011;20582;52.196;20.952;2023-05-10T13:01:34;7.28;;;2.80;;
34317;SDS011;20582;52.196;20.952;2023-05-10T13:04:00;13.25;;;3.10;;
34317;SDS011;20582;52.196;20.952;2023-05-10T13:06:26;4.72;;;2.60;;
34317;SDS011;20582;52.196;20.952;2023-05-10T13:08:52;5.72;;;2.80;;
34317;SDS011;20582;52.196;20.952;2023-05-10T13:11:18;10.25;;;3.05;;
34317;SDS011;20582;52.196;20.952;2023-05-10T13:13:45;6.93;;;2.72;;
34317;SDS011;20582;52.196;20.952;2023-05-10T13:16:11;7.72;;;3.20;;
34317;SDS011;20582;52.196;20.952;2023-05-10T13:18:37;9.60;;;3.08;;
34317;SDS011;20582;52.196;20.952;2023-05-10T13:21:03;9.27;;;3.20;;
34317;SDS011;20582;52.196;20.952;2023-05-10T13:23:30;8.32;;;3.10;;
34317;SDS011;20582;52.196;20.952;2023-05-10T13:25:56;8.10;;;3.17;;
34317;SDS011;20582;52.196;20.952;2023-05-10T13:28:22;5.80;;;3.10;;
34317;SDS011;20582;52.196;20.952;2023-05-10T13:30:48;6.00;;;2.88;;
34317;SDS011;20582;52.196;20.952;2023-05-10T13:33:14;7.25;;;2.80;;
34317;SDS011;20582;52.196;20.952;2023-05-10T13:35:40;9.02;;;2.83;;
34317;SDS011;20582;52.196;20.952;2023-05-10T13:38:06;5.53;;;2.55;;
34317;SDS011;20582;52.196;20.952;2023-05-10T13:40:32;4.35;;;2.78;;
34317;SDS011;20582;52.196;20.952;2023-05-10T13:42:59;6.55;;;2.70;;
34317;SDS011;20582;52.196;20.952;2023-05-10T13:45:25;7.35;;;2.83;;
34317;SDS011;20582;52.196;20.952;2023-05-10T13:47:51;6.38;;;3.20;;
34317;SDS011;20582;52.196;20.952;2023-05-10T13:50:17;6.43;;;2.97;;
34317;SDS011;20582;52.196;20.952;2023-05-10T13:52:43;6.22;;;2.60;;
34317;SDS011;20582;52.196;20.952;2023-05-10T13:55:09;6.25;;;2.90;;
34317;SDS011;20582;52.196;20.952;2023-05-10T13:57:37;9.80;;;3.10;;
34317;SDS011;20582;52.196;20.952;2023-05-10T14:00:03;10.10;;;2.97;;
34317;SDS011;20582;52.196;20.952;2023-05-10T14:02:29;10.48;;;3.10;;
34317;SDS011;20582;52.196;20.952;2023-05-10T14:04:56;6.70;;;2.90;;
34317;SDS011;20582;52.196;20.952;2023-05-10T14:07:22;5.72;;;2.72;;
34317;SDS011;20582;52.196;20.952;2023-05-10T14:09:48;6.30;;;2.90;;
34317;SDS011;20582;52.196;20.952;2023-05-10T14:12:14;6.80;;;2.80;;
34317;SDS011;20582;52.196;20.952;2023-05-10T14:14:40;8.73;;;3.17;;
34317;SDS011;20582;52.196;20.952;2023-05-10T14:17:06;10.15;;;2.95;;
34317;SDS011;20582;52.196;20.952;2023-05-10T14:19:32;6.72;;;2.90;;
34317;SDS011;20582;52.196;20.952;2023-05-10T14:21:59;6.03;;;2.63;;
34317;SDS011;20582;52.196;20.952;2023-05-10T14:24:25;5.57;;;2.78;;
34317;SDS011;20582;52.196;20.952;2023-05-10T14:26:51;6.15;;;2.97;;
34317;SDS011;20582;52.196;20.952;2023-05-10T14:29:19;5.72;;;3.08;;
34317;SDS011;20582;52.196;20.952;2023-05-10T14:31:45;7.82;;;2.78;;
34317;SDS011;20582;52.196;20.952;2023-05-10T14:34:11;7.22;;;2.60;;
34317;SDS011;20582;52.196;20.952;2023-05-10T14:36:37;4.60;;;2.67;;
34317;SDS011;20582;52.196;20.952;2023-05-10T14:39:03;9.75;;;3.03;;
34317;SDS011;20582;52.196;20.952;2023-05-10T14:41:30;10.98;;;2.95;;
34317;SDS011;20582;52.196;20.952;2023-05-10T14:43:56;6.22;;;3.15;;
34317;SDS011;20582;52.196;20.952;2023-05-10T14:46:22;9.25;;;2.80;;
34317;SDS011;20582;52.196;20.952;2023-05-10T14:48:48;9.02;;;2.60;;
34317;SDS011;20582;52.196;20.952;2023-05-10T14:51:14;7.95;;;3.00;;
34317;SDS011;20582;52.196;20.952;2023-05-10T14:53:40;10.32;;;3.30;;
34317;SDS011;20582;52.196;20.952;2023-05-10T14:56:06;6.28;;;2.78;;
34317;SDS011;20582;52.196;20.952;2023-05-10T14:58:32;10.32;;;2.72;;